createdAt,value
2022-10-20T00:00:17.392Z,16.01
2022-10-20T00:01:17.958Z,16.01
2022-10-20T00:02:17.944Z,16.03
2022-10-20T00:03:19.516Z,16.03
2022-10-20T00:04:17.677Z,16.03
2022-10-20T00:05:18.001Z,16.04
2022-10-20T00:06:18.324Z,16.06
2022-10-20T00:07:18.619Z,16.07
2022-10-20T00:08:18.974Z,16.04
2022-10-20T00:09:19.267Z,16.04
2022-10-20T00:10:19.566Z,16.04
2022-10-20T00:11:19.869Z,16.03
2022-10-20T00:12:20.168Z,16.03
2022-10-20T00:13:21.408Z,16.01
2022-10-20T00:14:20.779Z,16.03
2022-10-20T00:15:21.118Z,16.03
2022-10-20T00:16:23.378Z,16.04
2022-10-20T00:17:21.671Z,16.04
2022-10-20T00:18:21.994Z,16.04
2022-10-20T00:19:22.298Z,16.04
2022-10-20T00:20:24.655Z,16.04
2022-10-20T00:21:22.924Z,16.06
2022-10-20T00:22:23.258Z,16.06
2022-10-20T00:23:23.561Z,16.04
2022-10-20T00:24:23.871Z,16.07
2022-10-20T00:25:25.329Z,16.03
2022-10-20T00:26:24.727Z,16.01
2022-10-20T00:27:24.720Z,15.96
2022-10-20T00:28:24.898Z,15.94
2022-10-20T00:29:25.243Z,15.93
2022-10-20T00:30:25.781Z,15.89
2022-10-20T00:31:25.790Z,15.93
2022-10-20T00:32:26.094Z,15.93
2022-10-20T00:33:26.371Z,15.93
2022-10-20T00:34:26.704Z,15.96
2022-10-20T00:35:27.020Z,15.94
2022-10-20T00:36:27.317Z,15.97
2022-10-20T00:37:27.650Z,15.99
2022-10-20T00:38:28.701Z,15.99
2022-10-20T00:39:28.066Z,16.00
2022-10-20T00:40:28.383Z,16.00
2022-10-20T00:41:28.715Z,16.00
2022-10-20T00:42:29.044Z,15.99
2022-10-20T00:43:29.342Z,16.00
2022-10-20T00:44:29.652Z,15.97
2022-10-20T00:45:29.969Z,15.99
2022-10-20T00:46:30.303Z,15.97
2022-10-20T00:47:30.606Z,15.96
2022-10-20T00:48:30.910Z,15.97
2022-10-20T00:49:31.219Z,15.96
2022-10-20T00:50:32.653Z,15.96
2022-10-20T00:51:32.553Z,15.99
2022-10-20T02:55:25.327Z,15.08
2022-10-20T02:56:27.622Z,15.12
2022-10-20T02:57:25.788Z,15.06
2022-10-20T02:58:26.146Z,15.02
2022-10-20T02:59:26.394Z,14.99
2022-10-20T03:00:26.592Z,14.95
2022-10-20T03:01:26.980Z,14.90
2022-10-20T03:02:27.216Z,14.84
2022-10-20T03:03:27.533Z,14.81
2022-10-20T03:04:27.834Z,14.84
2022-10-20T03:05:28.170Z,14.80
2022-10-20T03:06:28.521Z,14.74
2022-10-20T03:07:28.702Z,14.71
2022-10-20T03:08:29.040Z,14.69
2022-10-20T03:09:29.249Z,14.65
2022-10-20T03:10:29.562Z,14.61
2022-10-20T03:11:29.896Z,14.57
2022-10-20T03:12:32.174Z,14.54
2022-10-20T03:14:30.681Z,14.43
2022-10-20T03:15:30.981Z,14.39
2022-10-20T03:16:31.321Z,14.37
2022-10-20T03:17:31.507Z,14.34
2022-10-20T03:18:31.790Z,14.31
2022-10-20T03:19:32.100Z,14.29
2022-10-20T03:20:32.387Z,14.29
2022-10-20T03:21:32.700Z,14.28
2022-10-20T03:22:33.057Z,14.28
2022-10-20T03:23:33.242Z,14.27
2022-10-20T03:24:33.591Z,14.27
2022-10-20T03:25:33.895Z,14.25
2022-10-20T03:26:34.189Z,14.21
2022-10-20T03:27:35.010Z,14.21
2022-10-20T03:28:34.812Z,14.24
2022-10-20T03:29:34.989Z,14.24
2022-10-20T03:30:35.271Z,14.25
2022-10-20T03:31:35.581Z,14.20
2022-10-20T03:32:36.438Z,14.19
2022-10-20T03:33:36.238Z,14.16
2022-10-20T03:34:36.541Z,14.13
2022-10-20T03:35:36.850Z,14.12
2022-10-20T03:36:37.128Z,14.13
2022-10-20T03:37:37.444Z,14.10
2022-10-20T03:38:39.570Z,14.09
2022-10-20T03:39:37.984Z,14.09
2022-10-20T03:40:38.277Z,14.07
2022-10-20T03:41:38.575Z,14.07
2022-10-20T03:42:39.114Z,14.09
2022-10-20T03:43:39.159Z,14.12
2022-10-20T03:44:39.476Z,14.13
2022-10-20T03:45:39.787Z,14.10
2022-10-20T03:46:40.089Z,14.09
2022-10-20T03:47:40.392Z,14.06
2022-10-20T03:48:41.468Z,14.02
2022-10-20T03:49:40.949Z,14.02
2022-10-20T03:50:41.258Z,14.07
2022-10-20T03:51:41.586Z,14.12
2022-10-20T03:52:41.930Z,14.14
2022-10-20T03:53:42.108Z,14.16
2022-10-20T03:54:42.406Z,14.17
2022-10-20T03:55:42.712Z,14.17
2022-10-20T03:56:43.024Z,14.19
2022-10-20T03:57:43.358Z,14.20
2022-10-20T03:58:43.660Z,14.19
2022-10-20T03:59:43.956Z,14.19
2022-10-20T04:00:44.275Z,14.20
2022-10-20T04:01:44.661Z,14.24
2022-10-20T04:02:44.911Z,14.27
2022-10-20T04:03:45.232Z,14.24
2022-10-20T04:04:45.539Z,14.24
2022-10-20T04:05:45.827Z,14.27
2022-10-20T04:06:46.142Z,14.24
2022-10-20T04:07:46.460Z,14.27
2022-10-20T04:08:46.812Z,14.29
2022-10-20T04:09:47.052Z,14.28
2022-10-20T04:10:47.371Z,14.28
2022-10-20T04:11:47.562Z,14.27
2022-10-20T04:12:47.857Z,14.21
2022-10-20T04:13:48.171Z,14.17
2022-10-20T04:14:48.478Z,14.13
2022-10-20T04:15:48.817Z,14.09
2022-10-20T04:16:49.129Z,14.02
2022-10-20T04:17:49.437Z,13.96
2022-10-20T04:18:49.738Z,13.94
2022-10-20T04:19:50.042Z,13.88
2022-10-20T04:20:50.388Z,13.87
2022-10-20T04:21:50.579Z,13.81
2022-10-20T04:22:50.882Z,13.79
2022-10-20T04:23:51.202Z,13.88
2022-10-20T04:24:52.286Z,13.94
2022-10-20T04:25:51.808Z,13.95
2022-10-20T04:26:52.006Z,13.95
2022-10-20T04:27:53.093Z,13.95
2022-10-20T04:28:52.569Z,13.92
2022-10-20T04:29:52.867Z,13.96
2022-10-20T04:30:53.204Z,13.95
2022-10-20T04:31:53.556Z,13.95
2022-10-20T04:32:53.742Z,13.92
2022-10-20T04:33:54.035Z,13.84
2022-10-20T04:34:54.349Z,13.81
2022-10-20T04:35:54.637Z,13.77
2022-10-20T04:36:54.986Z,13.74
2022-10-20T04:37:55.295Z,13.73
2022-10-20T04:38:55.613Z,13.71
2022-10-20T04:39:57.771Z,13.73
2022-10-20T04:40:58.103Z,13.73
2022-10-20T04:41:56.450Z,13.73
2022-10-20T04:42:56.762Z,13.73
2022-10-20T04:43:57.048Z,13.73
2022-10-20T04:44:59.095Z,13.71
2022-10-20T04:45:57.623Z,13.67
2022-10-20T04:46:57.938Z,13.62
2022-10-20T04:47:58.241Z,13.59
2022-10-20T04:48:58.547Z,13.56
2022-10-20T04:49:58.853Z,13.52
2022-10-20T04:50:59.182Z,13.51
2022-10-20T04:52:01.227Z,13.47
2022-10-20T04:52:59.708Z,13.44
2022-10-20T04:54:00.112Z,13.43
2022-10-20T04:55:00.341Z,13.44
2022-10-20T04:56:00.648Z,13.46
2022-10-20T04:57:00.963Z,13.46
2022-10-20T04:58:01.271Z,13.46
2022-10-20T04:59:01.620Z,13.44
2022-10-20T05:00:01.819Z,13.46
2022-10-20T05:01:02.137Z,13.49
2022-10-20T05:02:02.500Z,13.55
2022-10-20T05:03:02.784Z,13.55
2022-10-20T05:04:03.077Z,13.58
2022-10-20T05:05:03.412Z,13.61
2022-10-20T05:06:03.705Z,13.62
2022-10-20T05:07:05.844Z,13.65
2022-10-20T05:08:04.237Z,13.69
2022-10-20T05:09:04.570Z,13.74
2022-10-20T05:10:04.844Z,13.81
2022-10-20T05:11:05.042Z,13.83
2022-10-20T05:12:05.425Z,13.88
2022-10-20T05:13:05.700Z,13.88
2022-10-20T05:14:05.894Z,13.91
2022-10-20T05:15:06.217Z,13.94
2022-10-20T05:16:06.546Z,13.94
2022-10-20T05:17:09.311Z,13.95
2022-10-20T05:18:07.117Z,13.91
2022-10-20T05:19:07.396Z,13.88
2022-10-20T05:20:07.583Z,13.87
2022-10-20T05:21:09.709Z,13.84
2022-10-20T05:22:08.190Z,13.87
2022-10-20T05:23:08.530Z,13.92
2022-10-20T05:24:08.726Z,13.95
2022-10-20T05:25:31.363Z,14.01
2022-10-20T05:27:05.938Z,14.04
2022-10-20T05:28:06.151Z,14.04
2022-10-20T05:29:06.478Z,14.04
2022-10-20T05:30:06.784Z,14.06
2022-10-20T05:31:07.099Z,14.02
2022-10-20T05:32:07.390Z,14.01
2022-10-20T05:33:07.710Z,13.98
2022-10-20T05:34:08.007Z,13.98
2022-10-20T05:35:08.282Z,13.99
2022-10-20T05:36:08.610Z,14.02
2022-10-20T05:37:08.952Z,14.07
2022-10-20T05:38:09.142Z,14.07
2022-10-20T05:39:09.440Z,14.10
2022-10-20T05:40:09.755Z,14.12
2022-10-20T05:41:10.080Z,14.16
2022-10-20T05:42:10.417Z,14.17
2022-10-20T05:43:10.613Z,14.19
2022-10-20T05:44:10.928Z,14.19
2022-10-20T05:45:11.237Z,14.19
2022-10-20T05:46:11.544Z,14.21
2022-10-20T05:47:11.873Z,14.24
2022-10-20T05:48:12.077Z,14.25
2022-10-20T05:49:12.400Z,14.25
2022-10-20T05:50:12.703Z,14.27
2022-10-20T05:51:14.862Z,14.24
2022-10-20T05:52:13.383Z,14.25
2022-10-20T05:53:13.605Z,14.28
2022-10-20T05:54:13.805Z,14.28
2022-10-20T05:55:14.110Z,14.27
2022-10-20T05:56:14.425Z,14.27
2022-10-20T05:57:14.734Z,14.27
2022-10-20T05:58:16.810Z,14.29
2022-10-20T05:59:15.350Z,14.28
2022-10-20T06:00:15.659Z,14.28
2022-10-20T06:01:16.005Z,14.27
2022-10-20T06:02:16.266Z,14.25
2022-10-20T06:03:17.585Z,14.25
2022-10-20T06:04:16.838Z,14.27
2022-10-20T06:05:17.126Z,14.32
2022-10-20T06:06:17.465Z,14.35
2022-10-20T06:07:17.786Z,14.38
2022-10-20T06:08:18.123Z,14.37
2022-10-20T06:09:22.292Z,14.38
2022-10-20T06:10:18.668Z,14.39
2022-10-20T06:11:19.023Z,14.44
2022-10-20T06:12:19.226Z,14.44
2022-10-20T06:13:19.546Z,14.44
2022-10-20T06:14:19.850Z,14.44
2022-10-20T06:15:20.137Z,14.46
2022-10-20T06:16:20.476Z,14.46
2022-10-20T06:17:20.784Z,14.46
2022-10-20T06:18:21.099Z,14.46
2022-10-20T06:19:21.443Z,14.46
2022-10-20T06:20:21.646Z,14.44
2022-10-20T06:21:21.980Z,14.44
2022-10-20T06:22:22.294Z,14.44
2022-10-20T06:23:22.582Z,14.46
2022-10-20T06:24:22.940Z,14.49
2022-10-20T06:25:23.139Z,14.52
2022-10-20T06:26:23.449Z,14.53
2022-10-20T06:27:23.761Z,14.53
2022-10-20T06:28:24.065Z,14.53
2022-10-20T06:29:24.413Z,14.54
2022-10-20T06:30:24.606Z,14.57
2022-10-20T06:31:24.904Z,14.57
2022-10-20T06:32:25.215Z,14.57
2022-10-20T06:33:25.537Z,14.61
2022-10-20T06:34:25.900Z,14.62
2022-10-20T06:35:26.095Z,14.64
2022-10-20T06:36:26.422Z,14.65
2022-10-20T06:37:26.712Z,14.67
2022-10-20T06:38:27.004Z,14.69
2022-10-20T06:39:27.343Z,14.72
2022-10-20T06:40:31.250Z,14.72
2022-10-20T06:41:27.876Z,14.75
2022-10-20T06:42:28.219Z,14.81
2022-10-20T06:43:28.441Z,14.83
2022-10-20T06:44:28.757Z,14.86
2022-10-20T06:45:29.074Z,14.87
2022-10-20T06:46:30.135Z,14.88
2022-10-20T06:47:29.656Z,14.90
2022-10-20T06:48:29.966Z,14.91
2022-10-20T06:49:30.303Z,14.95
2022-10-20T06:50:30.496Z,14.98
2022-10-20T06:51:30.810Z,15.02
2022-10-20T06:52:31.143Z,15.05
2022-10-20T06:53:31.468Z,15.08
2022-10-20T06:54:31.770Z,15.15
2022-10-20T06:55:32.090Z,15.23
2022-10-20T06:56:32.414Z,15.28
2022-10-20T06:57:32.723Z,15.33
2022-10-20T06:58:33.052Z,15.39
2022-10-20T06:59:33.401Z,15.43
2022-10-20T07:00:33.710Z,15.49
2022-10-20T07:01:34.068Z,15.56
2022-10-20T07:02:34.535Z,15.59
2022-10-20T07:03:34.566Z,15.61
2022-10-20T07:04:34.858Z,15.59
2022-10-20T07:05:35.065Z,15.64
2022-10-20T07:06:36.185Z,15.68
2022-10-20T07:08:35.994Z,15.78
2022-10-20T07:09:36.234Z,15.84
2022-10-20T07:10:36.558Z,15.88
2022-10-20T07:11:36.891Z,15.94
2022-10-20T07:12:37.380Z,16.03
2022-10-20T07:13:37.383Z,16.16
2022-10-20T07:14:37.697Z,16.30
2022-10-20T07:15:38.036Z,16.37
2022-10-20T07:16:38.379Z,16.48
2022-10-20T07:17:38.573Z,16.56
2022-10-20T07:18:38.879Z,16.60
2022-10-20T07:19:39.187Z,16.60
2022-10-20T07:20:39.504Z,16.62
2022-10-20T07:21:41.739Z,16.63
2022-10-20T07:22:41.935Z,16.65
2022-10-20T07:23:40.349Z,16.65
2022-10-20T07:24:40.668Z,16.65
2022-10-20T07:25:40.990Z,16.70
2022-10-20T07:26:41.325Z,16.73
2022-10-20T07:27:42.294Z,16.77
2022-10-20T07:28:43.616Z,16.77
2022-10-20T07:29:42.035Z,16.81
2022-10-20T07:30:42.359Z,16.86
2022-10-20T07:31:42.669Z,16.80
2022-10-20T07:32:42.981Z,16.78
2022-10-20T07:33:43.278Z,16.74
2022-10-20T07:34:43.613Z,16.74
2022-10-20T07:35:43.879Z,16.67
2022-10-20T07:36:44.226Z,16.68
2022-10-20T07:37:44.428Z,16.62
2022-10-20T07:38:44.767Z,16.59
2022-10-20T07:39:45.220Z,16.62
2022-10-20T07:40:45.348Z,16.60
2022-10-20T07:41:45.696Z,16.59
2022-10-20T07:42:45.936Z,16.56
2022-10-20T07:43:46.289Z,16.53
2022-10-20T07:44:47.344Z,16.52
2022-10-20T07:45:46.771Z,16.49
2022-10-20T07:46:47.085Z,16.49
2022-10-20T07:47:47.785Z,16.49
2022-10-20T07:48:47.667Z,16.55
2022-10-20T07:49:47.988Z,16.56
2022-10-20T07:50:48.207Z,16.55
2022-10-20T07:51:48.542Z,16.55
2022-10-20T07:52:48.886Z,16.52
2022-10-20T07:53:49.221Z,16.44
2022-10-20T07:54:49.478Z,16.44
2022-10-20T07:55:49.671Z,16.48
2022-10-20T07:56:50.001Z,16.48
2022-10-20T07:57:50.333Z,16.48
2022-10-20T07:58:50.628Z,16.49
2022-10-20T07:59:50.930Z,16.45
2022-10-20T08:00:52.060Z,16.48
2022-10-20T08:01:54.770Z,16.50
2022-10-20T08:02:52.874Z,16.60
2022-10-20T08:03:52.150Z,16.77
2022-10-20T08:04:52.338Z,16.95
2022-10-20T08:05:53.396Z,17.13
2022-10-20T08:06:56.652Z,17.32
2022-10-20T08:07:53.148Z,17.46
2022-10-20T08:08:53.527Z,17.67
2022-10-20T08:09:53.775Z,17.89
2022-10-20T08:10:54.085Z,18.17
2022-10-20T08:11:55.806Z,18.44
2022-10-20T08:12:55.474Z,18.76
2022-10-20T08:13:54.959Z,19.05
2022-10-20T08:14:56.173Z,19.20
2022-10-20T08:15:58.446Z,19.29
2022-10-20T08:17:03.694Z,19.46
2022-10-20T08:17:56.008Z,19.61
2022-10-20T08:20:01.405Z,19.86
2022-10-20T08:20:56.913Z,19.86
2022-10-20T08:21:57.216Z,19.88
2022-10-20T08:22:57.547Z,19.91
2022-10-20T08:23:57.849Z,20.05
2022-10-20T08:24:58.174Z,20.15
2022-10-20T08:26:00.321Z,20.13
2022-10-20T08:27:00.560Z,20.25
2022-10-20T08:28:59.299Z,20.12
2022-10-20T08:30:22.397Z,20.00
2022-10-20T08:31:00.907Z,19.93
2022-10-20T08:32:00.217Z,19.79
2022-10-20T08:33:00.395Z,19.80
2022-10-20T08:34:00.696Z,19.75
2022-10-20T08:35:01.007Z,19.78
2022-10-20T08:36:01.321Z,19.79
2022-10-20T08:37:01.656Z,19.72
2022-10-20T08:38:01.952Z,19.65
2022-10-20T08:39:05.194Z,19.65
2022-10-20T08:40:02.586Z,19.97
2022-10-20T08:41:02.929Z,20.56
2022-10-20T08:42:08.557Z,20.83
2022-10-20T08:43:04.428Z,20.62
2022-10-20T08:44:03.699Z,20.33
2022-10-20T08:45:04.017Z,20.18
2022-10-20T08:46:04.346Z,20.13
2022-10-20T08:47:04.653Z,20.15
2022-10-20T08:48:08.719Z,20.13
2022-10-20T08:49:07.021Z,20.02
2022-10-20T08:50:05.543Z,20.09
2022-10-20T08:51:05.976Z,20.30
2022-10-20T08:52:06.088Z,20.50
2022-10-20T08:53:10.221Z,21.29
2022-10-20T08:54:06.736Z,21.51
2022-10-20T08:55:06.979Z,21.48
2022-10-20T08:56:07.152Z,21.39
2022-10-20T08:57:07.454Z,21.30
2022-10-20T08:58:11.535Z,21.30
2022-10-20T08:59:08.022Z,21.23
2022-10-20T09:00:09.107Z,21.04
2022-10-20T09:01:08.658Z,20.83
2022-10-20T09:02:10.808Z,20.62
2022-10-20T09:03:09.160Z,20.30
2022-10-20T09:04:09.490Z,19.72
2022-10-20T09:05:10.600Z,19.17
2022-10-20T09:06:10.167Z,18.92
2022-10-20T09:07:10.470Z,18.73
2022-10-20T09:08:10.753Z,18.33
2022-10-20T09:09:11.193Z,17.92
2022-10-20T09:10:11.356Z,17.46
2022-10-20T09:11:11.538Z,17.00
2022-10-20T09:12:11.868Z,16.88
2022-10-20T09:13:13.996Z,16.73
2022-10-20T09:14:12.514Z,16.67
2022-10-20T09:15:12.850Z,16.60
2022-10-20T09:16:21.973Z,16.58
2022-10-20T09:17:14.459Z,16.60
2022-10-20T09:18:13.700Z,16.63
2022-10-20T09:19:14.002Z,16.59
2022-10-20T09:20:14.333Z,16.56
2022-10-20T09:21:14.629Z,16.48
2022-10-20T09:22:14.932Z,16.40
2022-10-20T09:23:35.341Z,16.41
2022-10-20T09:24:16.573Z,16.34
2022-10-20T09:25:15.822Z,16.30
2022-10-20T09:26:25.089Z,16.16
2022-10-20T09:27:18.422Z,16.04
2022-10-20T09:28:16.736Z,15.97
2022-10-20T09:29:16.937Z,16.01
2022-10-20T09:30:17.237Z,16.01
2022-10-20T09:31:17.529Z,16.01
2022-10-20T09:32:44.993Z,15.99
2022-10-20T09:33:19.160Z,15.92
2022-10-20T09:34:18.405Z,15.86
2022-10-20T09:35:18.715Z,15.79
2022-10-20T09:36:18.988Z,15.74
2022-10-20T09:37:19.271Z,15.74
2022-10-20T09:38:19.584Z,15.75
2022-10-20T09:39:19.888Z,15.76
2022-10-20T09:40:20.223Z,15.76
2022-10-20T09:41:20.561Z,15.75
2022-10-20T09:42:20.904Z,15.78
2022-10-20T09:43:21.223Z,15.76
2022-10-20T09:44:21.534Z,15.81
2022-10-20T09:45:21.846Z,15.82
2022-10-20T09:46:22.185Z,15.86
2022-10-20T09:47:22.483Z,16.00
2022-10-20T09:48:22.834Z,16.04
2022-10-20T09:49:23.015Z,16.15
2022-10-20T09:50:23.303Z,16.26
2022-10-20T09:51:23.617Z,16.35
2022-10-20T09:52:27.702Z,16.45
2022-10-20T09:53:24.102Z,16.45
2022-10-20T09:54:24.295Z,16.49
2022-10-20T09:55:24.605Z,16.56
2022-10-20T09:56:24.933Z,16.58
2022-10-20T09:57:25.252Z,16.50
2022-10-20T09:58:25.587Z,16.37
2022-10-20T09:59:27.644Z,16.38
2022-10-20T10:00:36.872Z,16.41
2022-10-20T10:01:31.220Z,16.55
2022-10-20T10:02:26.640Z,16.71
2022-10-20T10:03:26.952Z,16.85
2022-10-20T10:04:27.301Z,16.90
2022-10-20T10:05:27.600Z,16.99
2022-10-20T10:06:28.001Z,17.06
2022-10-20T10:07:28.214Z,17.11
2022-10-20T10:08:28.574Z,17.10
2022-10-20T10:09:28.797Z,16.99
2022-10-20T10:10:29.027Z,16.89
2022-10-20T10:11:29.242Z,16.83
2022-10-20T10:12:29.564Z,16.85
2022-10-20T10:13:29.868Z,16.71
2022-10-20T10:14:30.222Z,16.59
2022-10-20T10:15:30.439Z,16.55
2022-10-20T10:16:30.758Z,16.58
2022-10-20T10:17:31.066Z,16.68
2022-10-20T10:18:31.375Z,16.90
2022-10-20T10:19:31.705Z,17.11
2022-10-20T10:20:31.891Z,17.25
2022-10-20T10:21:32.215Z,17.32
2022-10-20T10:22:32.590Z,17.50
2022-10-20T10:23:32.802Z,17.70
2022-10-20T10:24:33.106Z,17.97
2022-10-20T10:25:33.429Z,18.02
2022-10-20T10:26:33.743Z,18.07
2022-10-20T10:27:34.104Z,18.03
2022-10-20T10:28:34.311Z,18.13
2022-10-20T10:29:34.665Z,18.28
2022-10-20T10:30:34.883Z,18.37
2022-10-20T10:31:35.120Z,18.40
2022-10-20T10:32:35.621Z,18.50
2022-10-20T10:33:35.542Z,18.61
2022-10-20T10:34:35.831Z,18.73
2022-10-20T10:35:36.164Z,18.67
2022-10-20T10:36:36.505Z,18.54
2022-10-20T10:37:37.131Z,18.52
2022-10-20T10:38:36.939Z,18.64
2022-10-20T10:39:37.272Z,18.76
2022-10-20T10:40:37.607Z,18.84
2022-10-20T10:41:37.921Z,18.91
2022-10-20T10:42:38.584Z,19.06
2022-10-20T10:43:38.536Z,19.17
2022-10-20T10:44:38.957Z,19.17
2022-10-20T10:45:39.196Z,19.23
2022-10-20T10:46:39.583Z,19.40
2022-10-20T10:47:40.582Z,19.58
2022-10-20T10:48:40.084Z,19.66
2022-10-20T10:49:40.434Z,19.80
2022-10-20T10:50:40.653Z,20.03
2022-10-20T10:51:40.946Z,20.24
2022-10-20T10:52:41.266Z,20.47
2022-10-20T10:53:41.580Z,20.74
2022-10-20T10:54:41.920Z,20.76
2022-10-20T10:55:48.702Z,20.71
2022-10-20T10:56:43.561Z,20.71
2022-10-20T10:57:42.813Z,20.93
2022-10-20T10:58:43.137Z,21.13
2022-10-20T10:59:43.425Z,20.74
2022-10-20T11:00:43.748Z,20.30
2022-10-20T11:01:44.017Z,20.02
2022-10-20T11:02:44.281Z,19.80
2022-10-20T11:03:44.539Z,19.38
2022-10-20T11:04:44.848Z,19.08
2022-10-20T11:05:46.986Z,18.90
2022-10-20T11:06:45.400Z,18.68
2022-10-20T11:07:45.754Z,18.59
2022-10-20T11:08:45.989Z,18.50
2022-10-20T11:09:46.199Z,18.40
2022-10-20T11:10:46.507Z,18.36
2022-10-20T11:11:46.816Z,18.42
2022-10-20T11:12:47.158Z,18.43
2022-10-20T11:13:47.468Z,18.31
2022-10-20T11:14:47.808Z,18.33
2022-10-20T11:15:48.136Z,18.49
2022-10-20T11:16:48.462Z,18.73
2022-10-20T11:17:48.747Z,18.87
2022-10-20T11:18:49.043Z,18.99
2022-10-20T11:19:49.355Z,19.05
2022-10-20T11:20:49.740Z,19.01
2022-10-20T11:21:49.943Z,19.02
2022-10-20T11:22:50.236Z,18.82
2022-10-20T11:23:50.529Z,18.76
2022-10-20T11:24:50.849Z,18.70
2022-10-20T11:25:51.186Z,18.58
2022-10-20T11:26:51.486Z,18.43
2022-10-20T11:27:51.784Z,18.37
2022-10-20T11:28:52.117Z,18.29
2022-10-20T11:29:52.416Z,18.19
2022-10-20T11:30:52.761Z,18.12
2022-10-20T11:31:53.069Z,18.07
2022-10-20T11:32:53.368Z,18.02
2022-10-20T11:33:53.707Z,18.06
2022-10-20T11:34:54.006Z,18.06
2022-10-20T11:35:54.318Z,18.06
2022-10-20T11:36:54.627Z,18.09
2022-10-20T11:37:54.940Z,18.10
2022-10-20T11:38:55.285Z,18.19
2022-10-20T11:39:55.467Z,18.28
2022-10-20T11:40:55.760Z,18.31
2022-10-20T11:41:56.060Z,18.34
2022-10-20T11:42:56.343Z,18.34
2022-10-20T11:43:56.666Z,18.39
2022-10-20T11:44:56.968Z,18.39
2022-10-20T11:45:57.298Z,18.42
2022-10-20T11:46:57.592Z,18.52
2022-10-20T11:47:57.871Z,18.61
2022-10-20T11:49:00.397Z,18.74
2022-10-20T11:49:59.457Z,18.87
2022-10-20T11:50:58.733Z,18.95
2022-10-20T11:51:58.945Z,18.98
2022-10-20T11:52:59.275Z,18.99
2022-10-20T11:53:59.580Z,18.95
2022-10-20T11:54:59.925Z,18.92
2022-10-20T11:56:00.118Z,18.87
2022-10-20T11:57:00.441Z,18.83
2022-10-20T11:58:01.276Z,18.79
2022-10-20T11:59:01.008Z,18.74
2022-10-20T12:00:01.359Z,18.70
2022-10-20T12:01:01.539Z,18.65
2022-10-20T12:02:01.908Z,18.59
2022-10-20T12:03:02.137Z,18.52
2022-10-20T12:04:02.346Z,18.44
2022-10-20T12:05:02.659Z,18.39
2022-10-20T12:06:07.534Z,18.36
2022-10-20T12:07:04.289Z,18.29
2022-10-20T12:08:24.749Z,18.27
2022-10-20T12:09:04.886Z,18.27
2022-10-20T12:10:04.145Z,18.22
2022-10-20T12:11:04.429Z,18.18
2022-10-20T12:12:04.779Z,18.13
2022-10-20T12:13:04.976Z,18.12
2022-10-20T12:14:05.272Z,18.07
2022-10-20T12:15:05.553Z,18.03
2022-10-20T12:16:05.864Z,17.99
2022-10-20T12:17:06.195Z,17.94
2022-10-20T12:18:06.518Z,17.92
2022-10-20T12:19:06.812Z,17.85
2022-10-20T12:20:11.152Z,17.82
2022-10-20T12:21:07.390Z,17.78
2022-10-20T12:22:07.714Z,17.76
2022-10-20T12:23:08.035Z,17.78
2022-10-20T12:24:08.343Z,17.78
2022-10-20T12:25:08.687Z,17.81
2022-10-20T12:26:09.009Z,17.87
2022-10-20T12:27:09.381Z,17.94
2022-10-20T12:28:09.607Z,17.99
2022-10-20T12:29:09.915Z,18.04
2022-10-20T12:30:10.335Z,18.10
2022-10-20T12:31:10.543Z,18.17
2022-10-20T12:32:10.851Z,18.27
2022-10-20T12:33:11.201Z,18.31
2022-10-20T12:34:11.395Z,18.37
2022-10-20T12:35:11.712Z,18.43
2022-10-20T12:36:12.010Z,18.46
2022-10-20T12:37:12.310Z,18.46
2022-10-20T12:38:16.537Z,18.46
2022-10-20T12:39:12.891Z,18.46
2022-10-20T12:40:13.223Z,18.44
2022-10-20T12:41:13.523Z,18.44
2022-10-20T12:42:13.839Z,18.39
2022-10-20T12:43:14.170Z,18.42
2022-10-20T12:44:14.479Z,18.43
2022-10-20T12:45:14.702Z,18.46
2022-10-20T12:46:15.025Z,18.46
2022-10-20T12:47:15.340Z,18.37
2022-10-20T12:48:15.653Z,18.39
2022-10-20T12:49:15.968Z,18.42
2022-10-20T12:50:16.306Z,18.43
2022-10-20T12:51:16.603Z,18.47
2022-10-20T12:52:16.888Z,18.52
2022-10-20T12:53:17.177Z,18.58
2022-10-20T12:54:17.491Z,18.62
2022-10-20T12:55:17.831Z,18.68
2022-10-20T12:56:18.021Z,18.68
2022-10-20T12:57:22.085Z,18.72
2022-10-20T12:58:18.558Z,18.72
2022-10-20T12:59:18.862Z,18.73
2022-10-20T13:00:19.166Z,18.77
2022-10-20T13:01:19.604Z,18.82
2022-10-20T13:02:19.772Z,18.86
2022-10-20T13:03:21.867Z,18.92
2022-10-20T13:04:21.409Z,18.97
2022-10-20T13:05:20.663Z,18.91
2022-10-20T13:06:20.981Z,18.92
2022-10-20T13:07:22.103Z,18.90
2022-10-20T13:08:21.592Z,18.84
2022-10-20T13:09:21.937Z,18.86
2022-10-20T13:10:22.139Z,18.92
2022-10-20T13:11:23.201Z,18.97
2022-10-20T13:12:26.477Z,18.98
2022-10-20T13:13:23.008Z,19.01
2022-10-20T13:14:23.226Z,18.97
2022-10-20T13:15:23.560Z,18.94
2022-10-20T13:16:23.874Z,18.87
2022-10-20T13:17:24.161Z,18.76
2022-10-20T13:18:28.631Z,18.67
2022-10-20T13:19:24.783Z,18.58
2022-10-20T13:20:25.071Z,18.52
2022-10-20T13:21:25.401Z,18.52
2022-10-20T13:22:25.710Z,18.52
2022-10-20T13:23:26.047Z,18.49
2022-10-20T13:24:26.226Z,18.46
2022-10-20T13:25:26.551Z,18.47
2022-10-20T13:26:26.853Z,18.49
2022-10-20T13:27:27.167Z,18.49
2022-10-20T13:28:27.515Z,18.47
2022-10-20T13:29:31.645Z,18.46
2022-10-20T13:30:28.125Z,18.50
2022-10-20T13:31:28.411Z,18.50
2022-10-20T13:32:28.768Z,18.55
2022-10-20T13:33:44.477Z,18.55
2022-10-20T13:34:30.259Z,18.57
2022-10-20T13:35:29.496Z,18.59
2022-10-20T13:36:30.565Z,18.62
2022-10-20T13:37:30.076Z,18.64
2022-10-20T13:38:30.264Z,18.64
2022-10-20T13:39:30.582Z,18.68
2022-10-20T13:40:33.075Z,18.76
2022-10-20T13:41:35.071Z,18.90
2022-10-20T13:42:31.465Z,18.95
2022-10-20T13:43:31.673Z,18.99
2022-10-20T13:44:32.078Z,19.05
2022-10-20T13:45:32.270Z,19.05
2022-10-20T13:46:32.585Z,18.98
2022-10-20T13:47:32.925Z,18.99
2022-10-20T13:48:33.128Z,19.06
2022-10-20T13:49:33.436Z,18.98
2022-10-20T13:50:33.742Z,18.97
2022-10-20T13:51:34.051Z,18.97
2022-10-20T13:52:34.702Z,18.92
2022-10-20T13:53:34.691Z,18.87
2022-10-20T13:54:34.985Z,18.83
2022-10-20T13:55:35.306Z,18.80
2022-10-20T13:56:35.572Z,18.76
2022-10-20T13:57:35.876Z,18.74
2022-10-20T13:58:36.170Z,18.67
2022-10-20T13:59:37.860Z,18.61
2022-10-20T14:00:36.823Z,18.55
2022-10-20T14:01:37.034Z,18.49
2022-10-20T14:02:37.605Z,18.44
2022-10-20T14:03:37.626Z,18.43
2022-10-20T14:04:37.935Z,18.39
2022-10-20T14:05:38.222Z,18.39
2022-10-20T14:06:38.512Z,18.36
2022-10-20T14:07:38.871Z,18.31
2022-10-20T14:08:43.029Z,18.24
2022-10-20T14:09:42.097Z,18.21
2022-10-20T14:10:40.689Z,18.15
2022-10-20T14:11:39.951Z,18.10
2022-10-20T14:12:40.255Z,18.09
2022-10-20T14:13:42.483Z,18.04
2022-10-20T14:14:40.880Z,18.06
2022-10-20T14:15:41.219Z,18.02
2022-10-20T14:16:41.543Z,18.00
2022-10-20T14:17:41.942Z,17.99
2022-10-20T14:18:42.060Z,17.97
2022-10-20T14:19:44.634Z,17.97
2022-10-20T14:20:42.656Z,17.97
2022-10-20T14:21:42.956Z,17.94
2022-10-20T14:22:43.259Z,17.88
2022-10-20T14:23:43.592Z,17.84
2022-10-20T14:24:43.901Z,17.79
2022-10-20T14:25:44.230Z,17.76
2022-10-20T14:26:44.545Z,17.73
2022-10-20T14:27:44.898Z,17.71
2022-10-20T14:28:45.196Z,17.67
2022-10-20T14:29:45.525Z,17.67
2022-10-20T14:30:45.830Z,17.64
2022-10-20T14:31:46.117Z,17.64
2022-10-20T14:32:46.456Z,17.62
2022-10-20T14:33:46.658Z,17.62
2022-10-20T14:34:47.003Z,17.57
2022-10-20T14:35:47.215Z,17.54
2022-10-20T14:36:47.530Z,17.47
2022-10-20T14:37:47.829Z,17.44
2022-10-20T14:38:48.162Z,17.44
2022-10-20T14:39:48.460Z,17.40
2022-10-20T14:40:52.589Z,17.35
2022-10-20T14:41:49.073Z,17.33
2022-10-20T14:42:49.372Z,17.35
2022-10-20T14:43:49.689Z,17.32
2022-10-20T14:44:49.994Z,17.33
2022-10-20T14:45:52.147Z,17.33
2022-10-20T14:46:50.556Z,17.33
2022-10-20T14:47:50.855Z,17.35
2022-10-20T14:48:51.167Z,17.36
2022-10-20T14:49:52.376Z,17.26
2022-10-20T14:50:51.745Z,17.26
2022-10-20T14:51:52.049Z,17.23
2022-10-20T14:52:54.162Z,17.20
2022-10-20T14:53:52.690Z,17.15
2022-10-20T14:54:54.770Z,17.08
2022-10-20T14:55:53.268Z,17.06
2022-10-20T14:56:53.598Z,16.99
2022-10-20T14:57:53.922Z,16.95
2022-10-20T14:58:54.219Z,16.88
2022-10-20T14:59:54.558Z,16.83
2022-10-20T15:00:54.897Z,16.81
2022-10-20T15:01:56.024Z,16.78
2022-10-20T15:02:55.418Z,16.80
2022-10-20T15:03:55.827Z,16.78